sensor_id;sensor_type;location;lat;lon;timestamp;temperature;humidity
15359;DHT22;7779;49.596;11.070;2023-02-28T00:01:22;-0.30;57.10
15359;DHT22;7779;49.596;11.070;2023-02-28T00:03:48;-0.30;57.30
15359;DHT22;7779;49.596;11.070;2023-02-28T00:06:14;-0.30;57.30
15359;DHT22;7779;49.596;11.070;2023-02-28T00:08:40;-0.40;57.30
15359;DHT22;7779;49.596;11.070;2023-02-28T00:11:09;-0.40;56.90
15359;DHT22;7779;49.596;11.070;2023-02-28T00:13:39;-0.40;57.50
15359;DHT22;7779;49.596;11.070;2023-02-28T00:16:09;-0.40;57.50
15359;DHT22;7779;49.596;11.070;2023-02-28T00:18:38;-0.40;57.50
15359;DHT22;7779;49.596;11.070;2023-02-28T00:21:05;-0.40;57.50
15359;DHT22;7779;49.596;11.070;2023-02-28T00:23:32;-0.30;57.60
15359;DHT22;7779;49.596;11.070;2023-02-28T00:25:58;-0.40;57.50
15359;DHT22;7779;49.596;11.070;2023-02-28T00:28:24;-0.40;57.50
15359;DHT22;7779;49.596;11.070;2023-02-28T00:30:50;-0.30;57.60
15359;DHT22;7779;49.596;11.070;2023-02-28T00:33:16;-0.30;57.60
15359;DHT22;7779;49.596;11.070;2023-02-28T00:35:42;-0.30;57.60
15359;DHT22;7779;49.596;11.070;2023-02-28T00:38:08;-0.30;57.60
15359;DHT22;7779;49.596;11.070;2023-02-28T00:40:34;-0.30;57.60
15359;DHT22;7779;49.596;11.070;2023-02-28T00:43:00;-0.30;58.00
15359;DHT22;7779;49.596;11.070;2023-02-28T00:45:25;-0.30;57.70
15359;DHT22;7779;49.596;11.070;2023-02-28T00:47:51;-0.30;57.70
15359;DHT22;7779;49.596;11.070;2023-02-28T00:50:19;-0.30;57.70
15359;DHT22;7779;49.596;11.070;2023-02-28T00:52:46;-0.30;57.80
15359;DHT22;7779;49.596;11.070;2023-02-28T00:55:13;-0.30;57.80
15359;DHT22;7779;49.596;11.070;2023-02-28T00:57:39;-0.30;57.70
15359;DHT22;7779;49.596;11.070;2023-02-28T01:00:06;-0.30;57.80
15359;DHT22;7779;49.596;11.070;2023-02-28T01:02:33;-0.30;57.80
15359;DHT22;7779;49.596;11.070;2023-02-28T01:04:58;-0.30;57.70
15359;DHT22;7779;49.596;11.070;2023-02-28T01:07:24;-0.30;57.70
15359;DHT22;7779;49.596;11.070;2023-02-28T01:09:50;-0.30;57.60
15359;DHT22;7779;49.596;11.070;2023-02-28T01:12:16;-0.30;57.70
15359;DHT22;7779;49.596;11.070;2023-02-28T01:14:42;-0.30;57.60
15359;DHT22;7779;49.596;11.070;2023-02-28T01:17:08;-0.30;57.70
15359;DHT22;7779;49.596;11.070;2023-02-28T01:19:35;-0.30;57.70
15359;DHT22;7779;49.596;11.070;2023-02-28T01:22:03;-0.30;57.60
15359;DHT22;7779;49.596;11.070;2023-02-28T01:24:30;-0.30;57.50
15359;DHT22;7779;49.596;11.070;2023-02-28T01:26:56;-0.30;57.70
15359;DHT22;7779;49.596;11.070;2023-02-28T01:29:22;-0.30;57.50
15359;DHT22;7779;49.596;11.070;2023-02-28T01:31:48;-0.30;57.70
15359;DHT22;7779;49.596;11.070;2023-02-28T01:34:13;-0.30;57.70
15359;DHT22;7779;49.596;11.070;2023-02-28T01:36:39;-0.30;57.70
15359;DHT22;7779;49.596;11.070;2023-02-28T01:39:05;-0.40;57.60
15359;DHT22;7779;49.596;11.070;2023-02-28T01:41:33;-0.40;57.70
15359;DHT22;7779;49.596;11.070;2023-02-28T01:44:06;-0.40;57.70
15359;DHT22;7779;49.596;11.070;2023-02-28T01:46:52;-0.40;57.70
15359;DHT22;7779;49.596;11.070;2023-02-28T01:49:18;-0.40;57.70
15359;DHT22;7779;49.596;11.070;2023-02-28T01:51:53;-0.50;57.70
15359;DHT22;7779;49.596;11.070;2023-02-28T01:54:27;-0.40;57.80
15359;DHT22;7779;49.596;11.070;2023-02-28T01:57:06;-0.50;57.80
15359;DHT22;7779;49.596;11.070;2023-02-28T01:59:39;-0.50;58.00
15359;DHT22;7779;49.596;11.070;2023-02-28T02:02:17;-0.50;58.10
15359;DHT22;7779;49.596;11.070;2023-02-28T02:05:00;-0.50;58.10
15359;DHT22;7779;49.596;11.070;2023-02-28T02:07:30;-0.50;58.10
15359;DHT22;7779;49.596;11.070;2023-02-28T02:10:11;-0.50;58.00
15359;DHT22;7779;49.596;11.070;2023-02-28T02:18:53;-0.50;58.00
15359;DHT22;7779;49.596;11.070;2023-02-28T02:24:54;-0.50;58.10
15359;DHT22;7779;49.596;11.070;2023-02-28T02:30:50;-0.50;58.00
15359;DHT22;7779;49.596;11.070;2023-02-28T02:37:14;-0.50;58.20
15359;DHT22;7779;49.596;11.070;2023-02-28T02:43:15;-0.50;58.30
15359;DHT22;7779;49.596;11.070;2023-02-28T02:45:56;-0.50;58.30
15359;DHT22;7779;49.596;11.070;2023-02-28T02:48:30;-0.60;58.20
15359;DHT22;7779;49.596;11.070;2023-02-28T02:51:01;-0.50;58.00
15359;DHT22;7779;49.596;11.070;2023-02-28T02:53:45;-0.50;58.30
15359;DHT22;7779;49.596;11.070;2023-02-28T02:56:17;-0.50;58.30
15359;DHT22;7779;49.596;11.070;2023-02-28T02:58:47;-0.50;58.30
15359;DHT22;7779;49.596;11.070;2023-02-28T03:01:20;-0.50;58.30
15359;DHT22;7779;49.596;11.070;2023-02-28T03:04:08;-0.50;58.20
15359;DHT22;7779;49.596;11.070;2023-02-28T03:06:37;-0.50;58.30
15359;DHT22;7779;49.596;11.070;2023-02-28T03:09:04;-0.50;58.30
15359;DHT22;7779;49.596;11.070;2023-02-28T03:11:30;-0.50;58.30
15359;DHT22;7779;49.596;11.070;2023-02-28T03:17:40;-0.50;58.80
15359;DHT22;7779;49.596;11.070;2023-02-28T03:23:42;-0.50;58.80
15359;DHT22;7779;49.596;11.070;2023-02-28T03:26:20;-0.60;58.50
15359;DHT22;7779;49.596;11.070;2023-02-28T03:28:59;-0.50;58.00
15359;DHT22;7779;49.596;11.070;2023-02-28T03:31:36;-0.60;58.50
15359;DHT22;7779;49.596;11.070;2023-02-28T03:34:12;-0.50;58.60
15359;DHT22;7779;49.596;11.070;2023-02-28T03:36:53;-0.50;58.60
15359;DHT22;7779;49.596;11.070;2023-02-28T03:39:31;-0.50;58.70
15359;DHT22;7779;49.596;11.070;2023-02-28T03:42:07;-0.50;58.60
15359;DHT22;7779;49.596;11.070;2023-02-28T03:44:54;-0.60;58.60
15359;DHT22;7779;49.596;11.070;2023-02-28T03:47:29;-0.50;58.80
15359;DHT22;7779;49.596;11.070;2023-02-28T03:50:08;-0.50;58.60
15359;DHT22;7779;49.596;11.070;2023-02-28T03:52:42;-0.50;58.60
15359;DHT22;7779;49.596;11.070;2023-02-28T03:55:14;-0.50;59.00
15359;DHT22;7779;49.596;11.070;2023-02-28T03:57:56;-0.60;58.50
15359;DHT22;7779;49.596;11.070;2023-02-28T04:00:34;-0.60;58.50
15359;DHT22;7779;49.596;11.070;2023-02-28T04:03:03;-0.60;58.40
15359;DHT22;7779;49.596;11.070;2023-02-28T04:05:30;-0.60;58.30
15359;DHT22;7779;49.596;11.070;2023-02-28T04:08:07;-0.60;58.40
15359;DHT22;7779;49.596;11.070;2023-02-28T04:10:33;-0.60;58.50
15359;DHT22;7779;49.596;11.070;2023-02-28T04:12:59;-0.60;58.50
15359;DHT22;7779;49.596;11.070;2023-02-28T04:15:25;-0.60;58.50
15359;DHT22;7779;49.596;11.070;2023-02-28T04:17:52;-0.60;58.60
15359;DHT22;7779;49.596;11.070;2023-02-28T04:20:18;-0.60;58.50
15359;DHT22;7779;49.596;11.070;2023-02-28T04:22:44;-0.60;58.40
15359;DHT22;7779;49.596;11.070;2023-02-28T04:25:10;-0.70;58.40
15359;DHT22;7779;49.596;11.070;2023-02-28T04:27:35;-0.70;58.40
15359;DHT22;7779;49.596;11.070;2023-02-28T04:30:01;-0.70;58.60
15359;DHT22;7779;49.596;11.070;2023-02-28T04:32:28;-0.70;58.60
15359;DHT22;7779;49.596;11.070;2023-02-28T04:34:53;-0.70;58.50
15359;DHT22;7779;49.596;11.070;2023-02-28T04:37:19;-0.70;58.50
15359;DHT22;7779;49.596;11.070;2023-02-28T04:39:45;-0.70;58.70
15359;DHT22;7779;49.596;11.070;2023-02-28T04:42:11;-0.70;58.70
15359;DHT22;7779;49.596;11.070;2023-02-28T04:44:36;-0.70;58.70
15359;DHT22;7779;49.596;11.070;2023-02-28T04:47:02;-0.70;58.70
15359;DHT22;7779;49.596;11.070;2023-02-28T04:49:28;-0.70;58.70
15359;DHT22;7779;49.596;11.070;2023-02-28T04:51:54;-0.70;58.70
15359;DHT22;7779;49.596;11.070;2023-02-28T04:54:20;-0.70;58.70
15359;DHT22;7779;49.596;11.070;2023-02-28T04:56:45;-0.70;58.80
15359;DHT22;7779;49.596;11.070;2023-02-28T04:59:11;-0.70;58.80
15359;DHT22;7779;49.596;11.070;2023-02-28T05:01:37;-0.70;58.80
15359;DHT22;7779;49.596;11.070;2023-02-28T05:04:04;-0.60;58.90
15359;DHT22;7779;49.596;11.070;2023-02-28T05:06:32;-0.70;59.00
15359;DHT22;7779;49.596;11.070;2023-02-28T05:08:58;-0.70;59.10
15359;DHT22;7779;49.596;11.070;2023-02-28T05:11:34;-0.70;59.00
15359;DHT22;7779;49.596;11.070;2023-02-28T05:14:01;-0.60;59.10
15359;DHT22;7779;49.596;11.070;2023-02-28T05:16:28;-0.60;59.00
15359;DHT22;7779;49.596;11.070;2023-02-28T05:18:54;-0.60;59.00
15359;DHT22;7779;49.596;11.070;2023-02-28T05:21:24;-0.60;59.00
15359;DHT22;7779;49.596;11.070;2023-02-28T05:23:50;-0.60;59.00
15359;DHT22;7779;49.596;11.070;2023-02-28T05:26:16;-0.60;59.00
15359;DHT22;7779;49.596;11.070;2023-02-28T05:28:42;-0.60;59.00
15359;DHT22;7779;49.596;11.070;2023-02-28T05:31:10;-0.50;58.60
15359;DHT22;7779;49.596;11.070;2023-02-28T05:33:36;-0.50;59.00
15359;DHT22;7779;49.596;11.070;2023-02-28T05:36:03;-0.50;59.00
15359;DHT22;7779;49.596;11.070;2023-02-28T05:38:29;-0.50;59.00
15359;DHT22;7779;49.596;11.070;2023-02-28T05:40:54;-0.50;59.00
15359;DHT22;7779;49.596;11.070;2023-02-28T05:43:20;-0.50;58.90
15359;DHT22;7779;49.596;11.070;2023-02-28T05:45:46;-0.50;59.00
15359;DHT22;7779;49.596;11.070;2023-02-28T05:48:11;-0.50;58.80
15359;DHT22;7779;49.596;11.070;2023-02-28T05:50:37;-0.50;58.80
15359;DHT22;7779;49.596;11.070;2023-02-28T05:53:03;-0.50;59.00
15359;DHT22;7779;49.596;11.070;2023-02-28T05:55:29;-0.50;58.90
15359;DHT22;7779;49.596;11.070;2023-02-28T05:57:54;-0.50;58.90
15359;DHT22;7779;49.596;11.070;2023-02-28T06:00:21;-0.50;58.80
15359;DHT22;7779;49.596;11.070;2023-02-28T06:02:47;-0.50;58.90
15359;DHT22;7779;49.596;11.070;2023-02-28T06:05:16;-0.60;58.90
15359;DHT22;7779;49.596;11.070;2023-02-28T06:07:43;-0.60;58.90
15359;DHT22;7779;49.596;11.070;2023-02-28T06:10:11;-0.60;58.80
15359;DHT22;7779;49.596;11.070;2023-02-28T06:12:37;-0.60;58.90
15359;DHT22;7779;49.596;11.070;2023-02-28T06:15:04;-0.60;58.90
15359;DHT22;7779;49.596;11.070;2023-02-28T06:17:30;-0.50;59.00
15359;DHT22;7779;49.596;11.070;2023-02-28T06:19:55;-0.60;59.00
15359;DHT22;7779;49.596;11.070;2023-02-28T06:22:21;-0.50;59.00
15359;DHT22;7779;49.596;11.070;2023-02-28T06:24:47;-0.50;59.10
15359;DHT22;7779;49.596;11.070;2023-02-28T06:27:12;-0.60;58.90
15359;DHT22;7779;49.596;11.070;2023-02-28T06:29:38;-0.50;59.00
15359;DHT22;7779;49.596;11.070;2023-02-28T06:32:06;-0.50;59.00
15359;DHT22;7779;49.596;11.070;2023-02-28T06:34:32;-0.50;59.10
15359;DHT22;7779;49.596;11.070;2023-02-28T06:36:59;-0.50;59.00
15359;DHT22;7779;49.596;11.070;2023-02-28T06:39:29;-0.50;58.80
15359;DHT22;7779;49.596;11.070;2023-02-28T06:41:55;-0.50;59.10
15359;DHT22;7779;49.596;11.070;2023-02-28T06:44:22;-0.40;59.20
15359;DHT22;7779;49.596;11.070;2023-02-28T06:46:49;-0.40;59.20
15359;DHT22;7779;49.596;11.070;2023-02-28T06:49:15;-0.40;59.20
15359;DHT22;7779;49.596;11.070;2023-02-28T06:51:43;-0.30;59.50
15359;DHT22;7779;49.596;11.070;2023-02-28T06:54:13;-0.30;59.40
15359;DHT22;7779;49.596;11.070;2023-02-28T06:56:39;-0.30;59.50
15359;DHT22;7779;49.596;11.070;2023-02-28T06:59:05;-0.20;59.50
15359;DHT22;7779;49.596;11.070;2023-02-28T07:01:31;-0.20;59.50
15359;DHT22;7779;49.596;11.070;2023-02-28T07:03:58;-0.10;59.60
15359;DHT22;7779;49.596;11.070;2023-02-28T07:06:26;0.00;59.60
15359;DHT22;7779;49.596;11.070;2023-02-28T07:08:53;0.00;59.60
15359;DHT22;7779;49.596;11.070;2023-02-28T07:11:21;0.10;59.60
15359;DHT22;7779;49.596;11.070;2023-02-28T07:13:49;0.10;59.60
15359;DHT22;7779;49.596;11.070;2023-02-28T07:16:16;0.20;59.60
15359;DHT22;7779;49.596;11.070;2023-02-28T07:18:41;0.30;59.60
15359;DHT22;7779;49.596;11.070;2023-02-28T07:21:09;0.40;59.60
15359;DHT22;7779;49.596;11.070;2023-02-28T07:23:36;0.40;59.50
15359;DHT22;7779;49.596;11.070;2023-02-28T07:26:05;0.50;59.60
15359;DHT22;7779;49.596;11.070;2023-02-28T07:28:32;0.60;59.50
15359;DHT22;7779;49.596;11.070;2023-02-28T07:31:03;0.60;59.50
15359;DHT22;7779;49.596;11.070;2023-02-28T07:33:30;0.70;59.40
15359;DHT22;7779;49.596;11.070;2023-02-28T07:36:04;0.80;59.50
15359;DHT22;7779;49.596;11.070;2023-02-28T07:38:37;0.80;59.40
15359;DHT22;7779;49.596;11.070;2023-02-28T07:41:03;0.90;58.80
15359;DHT22;7779;49.596;11.070;2023-02-28T07:43:30;0.90;59.30
15359;DHT22;7779;49.596;11.070;2023-02-28T07:46:12;1.00;59.20
15359;DHT22;7779;49.596;11.070;2023-02-28T07:48:40;1.10;59.10
15359;DHT22;7779;49.596;11.070;2023-02-28T07:51:06;1.10;59.10
15359;DHT22;7779;49.596;11.070;2023-02-28T07:53:32;1.20;59.30
15359;DHT22;7779;49.596;11.070;2023-02-28T07:56:00;1.20;59.20
15359;DHT22;7779;49.596;11.070;2023-02-28T07:58:28;1.30;59.10
15359;DHT22;7779;49.596;11.070;2023-02-28T08:00:56;1.40;58.90
15359;DHT22;7779;49.596;11.070;2023-02-28T08:03:23;1.50;59.00
15359;DHT22;7779;49.596;11.070;2023-02-28T08:05:49;1.60;59.10
15359;DHT22;7779;49.596;11.070;2023-02-28T08:08:16;1.60;59.00
15359;DHT22;7779;49.596;11.070;2023-02-28T08:10:42;1.70;59.00
15359;DHT22;7779;49.596;11.070;2023-02-28T08:13:08;1.80;59.10
15359;DHT22;7779;49.596;11.070;2023-02-28T08:15:34;1.90;59.00
15359;DHT22;7779;49.596;11.070;2023-02-28T08:18:00;2.00;58.80
15359;DHT22;7779;49.596;11.070;2023-02-28T08:20:26;2.10;59.10
15359;DHT22;7779;49.596;11.070;2023-02-28T08:22:52;2.10;58.70
15359;DHT22;7779;49.596;11.070;2023-02-28T08:25:18;2.20;58.70
15359;DHT22;7779;49.596;11.070;2023-02-28T08:27:44;2.30;58.80
15359;DHT22;7779;49.596;11.070;2023-02-28T08:30:12;2.40;58.40
15359;DHT22;7779;49.596;11.070;2023-02-28T08:32:39;2.50;58.40
15359;DHT22;7779;49.596;11.070;2023-02-28T08:35:06;2.50;58.00
15359;DHT22;7779;49.596;11.070;2023-02-28T08:37:32;2.60;58.10
15359;DHT22;7779;49.596;11.070;2023-02-28T08:39:58;2.70;58.80
15359;DHT22;7779;49.596;11.070;2023-02-28T08:42:24;2.70;58.00
15359;DHT22;7779;49.596;11.070;2023-02-28T08:44:50;2.80;58.20
15359;DHT22;7779;49.596;11.070;2023-02-28T08:47:16;2.80;57.80
15359;DHT22;7779;49.596;11.070;2023-02-28T08:49:41;2.90;57.90
15359;DHT22;7779;49.596;11.070;2023-02-28T08:52:07;2.90;58.10
15359;DHT22;7779;49.596;11.070;2023-02-28T08:54:33;3.00;57.60
15359;DHT22;7779;49.596;11.070;2023-02-28T08:57:00;3.00;57.60
15359;DHT22;7779;49.596;11.070;2023-02-28T08:59:26;3.10;57.30
15359;DHT22;7779;49.596;11.070;2023-02-28T09:01:51;3.10;57.00
15359;DHT22;7779;49.596;11.070;2023-02-28T09:04:17;3.20;57.20
15359;DHT22;7779;49.596;11.070;2023-02-28T09:06:43;3.20;56.80
15359;DHT22;7779;49.596;11.070;2023-02-28T09:09:10;3.20;56.60
15359;DHT22;7779;49.596;11.070;2023-02-28T09:11:36;3.20;56.90
15359;DHT22;7779;49.596;11.070;2023-02-28T09:14:02;3.30;57.00
15359;DHT22;7779;49.596;11.070;2023-02-28T09:16:30;3.30;57.00
15359;DHT22;7779;49.596;11.070;2023-02-28T09:18:57;3.40;55.70
15359;DHT22;7779;49.596;11.070;2023-02-28T09:21:22;3.40;56.50
15359;DHT22;7779;49.596;11.070;2023-02-28T09:23:49;3.50;56.40
15359;DHT22;7779;49.596;11.070;2023-02-28T09:26:24;3.50;56.10
15359;DHT22;7779;49.596;11.070;2023-02-28T09:28:52;3.50;55.90
15359;DHT22;7779;49.596;11.070;2023-02-28T09:31:22;3.60;56.60
15359;DHT22;7779;49.596;11.070;2023-02-28T09:33:51;3.60;56.00
15359;DHT22;7779;49.596;11.070;2023-02-28T09:36:18;3.60;56.10
15359;DHT22;7779;49.596;11.070;2023-02-28T09:38:45;3.70;56.20
15359;DHT22;7779;49.596;11.070;2023-02-28T09:41:18;3.70;56.20
15359;DHT22;7779;49.596;11.070;2023-02-28T09:43:54;3.80;56.00
15359;DHT22;7779;49.596;11.070;2023-02-28T09:46:43;3.80;56.00
15359;DHT22;7779;49.596;11.070;2023-02-28T09:49:14;3.90;55.40
15359;DHT22;7779;49.596;11.070;2023-02-28T09:54:17;4.00;55.40
15359;DHT22;7779;49.596;11.070;2023-02-28T10:05:28;4.20;55.10
15359;DHT22;7779;49.596;11.070;2023-02-28T10:08:26;4.30;55.80
15359;DHT22;7779;49.596;11.070;2023-02-28T10:11:03;4.40;53.50
15359;DHT22;7779;49.596;11.070;2023-02-28T10:13:52;4.50;55.60
15359;DHT22;7779;49.596;11.070;2023-02-28T10:18:59;4.70;55.40
15359;DHT22;7779;49.596;11.070;2023-02-28T10:21:40;4.80;55.30
15359;DHT22;7779;49.596;11.070;2023-02-28T10:24:41;4.80;54.30
15359;DHT22;7779;49.596;11.070;2023-02-28T10:27:17;4.80;54.40
15359;DHT22;7779;49.596;11.070;2023-02-28T10:29:50;4.90;54.40
15359;DHT22;7779;49.596;11.070;2023-02-28T10:32:20;4.90;55.00
15359;DHT22;7779;49.596;11.070;2023-02-28T10:34:55;5.00;55.10
15359;DHT22;7779;49.596;11.070;2023-02-28T10:37:24;5.10;54.90
15359;DHT22;7779;49.596;11.070;2023-02-28T10:39:50;5.10;54.90
15359;DHT22;7779;49.596;11.070;2023-02-28T10:45:15;5.20;54.20
15359;DHT22;7779;49.596;11.070;2023-02-28T10:56:03;5.30;53.60
15359;DHT22;7779;49.596;11.070;2023-02-28T11:01:43;5.40;54.40
15359;DHT22;7779;49.596;11.070;2023-02-28T11:07:16;5.50;53.50
15359;DHT22;7779;49.596;11.070;2023-02-28T11:09:50;5.50;51.20
15359;DHT22;7779;49.596;11.070;2023-02-28T11:12:37;5.60;53.60
15359;DHT22;7779;49.596;11.070;2023-02-28T11:15:21;5.60;53.30
15359;DHT22;7779;49.596;11.070;2023-02-28T11:17:56;5.70;53.20
15359;DHT22;7779;49.596;11.070;2023-02-28T11:20:25;5.70;50.00
15359;DHT22;7779;49.596;11.070;2023-02-28T11:22:55;5.70;52.70
15359;DHT22;7779;49.596;11.070;2023-02-28T11:25:23;5.70;53.30
15359;DHT22;7779;49.596;11.070;2023-02-28T11:28:30;5.80;53.50
15359;DHT22;7779;49.596;11.070;2023-02-28T11:36:29;5.90;53.00
15359;DHT22;7779;49.596;11.070;2023-02-28T11:39:00;5.90;53.20
15359;DHT22;7779;49.596;11.070;2023-02-28T11:48:01;6.00;52.50
15359;DHT22;7779;49.596;11.070;2023-02-28T11:56:18;6.10;51.50
15359;DHT22;7779;49.596;11.070;2023-02-28T12:05:08;6.10;52.20
15359;DHT22;7779;49.596;11.070;2023-02-28T12:07:52;6.10;52.80
15359;DHT22;7779;49.596;11.070;2023-02-28T12:10:30;6.20;51.00
15359;DHT22;7779;49.596;11.070;2023-02-28T12:13:51;6.20;52.70
15359;DHT22;7779;49.596;11.070;2023-02-28T12:22:31;6.30;51.90
15359;DHT22;7779;49.596;11.070;2023-02-28T12:28:14;6.30;51.70
15359;DHT22;7779;49.596;11.070;2023-02-28T12:32:03;6.30;52.20
15359;DHT22;7779;49.596;11.070;2023-02-28T12:34:01;6.40;51.60
15359;DHT22;7779;49.596;11.070;2023-02-28T12:36:29;6.40;52.00
15359;DHT22;7779;49.596;11.070;2023-02-28T12:39:08;6.40;52.20
15359;DHT22;7779;49.596;11.070;2023-02-28T12:41:42;6.40;52.00
15359;DHT22;7779;49.596;11.070;2023-02-28T12:44:28;6.40;52.40
15359;DHT22;7779;49.596;11.070;2023-02-28T12:47:02;6.40;51.90
15359;DHT22;7779;49.596;11.070;2023-02-28T12:49:52;6.50;51.80
15359;DHT22;7779;49.596;11.070;2023-02-28T12:52:39;6.50;51.60
15359;DHT22;7779;49.596;11.070;2023-02-28T12:55:37;6.50;51.00
15359;DHT22;7779;49.596;11.070;2023-02-28T13:04:14;6.60;51.50
15359;DHT22;7779;49.596;11.070;2023-02-28T13:10:15;6.60;50.70
15359;DHT22;7779;49.596;11.070;2023-02-28T13:12:51;6.60;51.60
15359;DHT22;7779;49.596;11.070;2023-02-28T13:15:26;6.60;51.40
15359;DHT22;7779;49.596;11.070;2023-02-28T13:17:56;6.60;51.10
15359;DHT22;7779;49.596;11.070;2023-02-28T13:20:35;6.60;51.60
15359;DHT22;7779;49.596;11.070;2023-02-28T13:23:02;6.60;50.60
15359;DHT22;7779;49.596;11.070;2023-02-28T13:28:00;6.60;50.40
15359;DHT22;7779;49.596;11.070;2023-02-28T13:38:50;6.70;50.50
15359;DHT22;7779;49.596;11.070;2023-02-28T13:47:15;6.70;50.80
15359;DHT22;7779;49.596;11.070;2023-02-28T13:49:46;6.70;50.40
15359;DHT22;7779;49.596;11.070;2023-02-28T13:52:22;6.70;51.50
15359;DHT22;7779;49.596;11.070;2023-02-28T14:04:28;6.80;50.90
15359;DHT22;7779;49.596;11.070;2023-02-28T14:06:59;6.80;50.10
15359;DHT22;7779;49.596;11.070;2023-02-28T14:09:32;6.80;51.00
15359;DHT22;7779;49.596;11.070;2023-02-28T14:21:23;6.90;49.20
15359;DHT22;7779;49.596;11.070;2023-02-28T14:32:54;6.90;50.70
15359;DHT22;7779;49.596;11.070;2023-02-28T14:38:24;6.80;49.60
15359;DHT22;7779;49.596;11.070;2023-02-28T14:40:55;6.90;50.40
15359;DHT22;7779;49.596;11.070;2023-02-28T14:43:27;6.80;50.50
15359;DHT22;7779;49.596;11.070;2023-02-28T14:45:56;6.80;50.50
15359;DHT22;7779;49.596;11.070;2023-02-28T14:48:24;6.80;50.30
15359;DHT22;7779;49.596;11.070;2023-02-28T14:50:55;6.80;49.70
15359;DHT22;7779;49.596;11.070;2023-02-28T14:53:24;6.80;50.30
15359;DHT22;7779;49.596;11.070;2023-02-28T14:55:52;6.80;50.10
15359;DHT22;7779;49.596;11.070;2023-02-28T14:58:27;6.80;50.40
15359;DHT22;7779;49.596;11.070;2023-02-28T15:00:57;6.80;49.90
15359;DHT22;7779;49.596;11.070;2023-02-28T15:03:32;6.80;50.00
15359;DHT22;7779;49.596;11.070;2023-02-28T15:06:16;6.80;49.80
15359;DHT22;7779;49.596;11.070;2023-02-28T15:08:43;6.80;49.20
15359;DHT22;7779;49.596;11.070;2023-02-28T15:11:16;6.70;49.90
15359;DHT22;7779;49.596;11.070;2023-02-28T15:13:53;6.70;50.00
15359;DHT22;7779;49.596;11.070;2023-02-28T15:16:30;6.70;49.90
15359;DHT22;7779;49.596;11.070;2023-02-28T15:22:11;6.70;50.00
15359;DHT22;7779;49.596;11.070;2023-02-28T15:24:44;6.60;49.40
15359;DHT22;7779;49.596;11.070;2023-02-28T15:27:26;6.70;49.80
15359;DHT22;7779;49.596;11.070;2023-02-28T15:29:57;6.60;48.80
15359;DHT22;7779;49.596;11.070;2023-02-28T15:32:36;6.60;49.40
15359;DHT22;7779;49.596;11.070;2023-02-28T15:35:28;6.60;49.50
15359;DHT22;7779;49.596;11.070;2023-02-28T15:37:57;6.50;49.20
15359;DHT22;7779;49.596;11.070;2023-02-28T15:40:30;6.50;50.00
15359;DHT22;7779;49.596;11.070;2023-02-28T15:45:37;6.50;49.40
15359;DHT22;7779;49.596;11.070;2023-02-28T15:48:25;6.40;49.20
15359;DHT22;7779;49.596;11.070;2023-02-28T15:53:37;6.40;49.00
15359;DHT22;7779;49.596;11.070;2023-02-28T15:56:22;6.40;49.30
15359;DHT22;7779;49.596;11.070;2023-02-28T15:58:56;6.30;49.10
15359;DHT22;7779;49.596;11.070;2023-02-28T16:01:29;6.30;49.80
15359;DHT22;7779;49.596;11.070;2023-02-28T16:04:06;6.30;49.60
15359;DHT22;7779;49.596;11.070;2023-02-28T16:06:46;6.20;49.80
15359;DHT22;7779;49.596;11.070;2023-02-28T16:09:29;6.20;50.10
15359;DHT22;7779;49.596;11.070;2023-02-28T16:11:58;6.20;49.70
15359;DHT22;7779;49.596;11.070;2023-02-28T16:14:30;6.10;49.80
15359;DHT22;7779;49.596;11.070;2023-02-28T16:17:04;6.10;49.70
15359;DHT22;7779;49.596;11.070;2023-02-28T16:19:34;6.10;49.70
15359;DHT22;7779;49.596;11.070;2023-02-28T16:22:00;6.00;49.80
15359;DHT22;7779;49.596;11.070;2023-02-28T16:24:26;6.00;49.80
15359;DHT22;7779;49.596;11.070;2023-02-28T16:26:53;5.90;49.60
15359;DHT22;7779;49.596;11.070;2023-02-28T16:29:34;5.90;49.60
15359;DHT22;7779;49.596;11.070;2023-02-28T16:32:05;5.80;49.40
15359;DHT22;7779;49.596;11.070;2023-02-28T16:34:31;5.80;49.60
15359;DHT22;7779;49.596;11.070;2023-02-28T16:36:57;5.70;49.80
15359;DHT22;7779;49.596;11.070;2023-02-28T16:39:23;5.70;49.80
15359;DHT22;7779;49.596;11.070;2023-02-28T16:41:50;5.60;49.70
15359;DHT22;7779;49.596;11.070;2023-02-28T16:44:32;5.60;49.80
15359;DHT22;7779;49.596;11.070;2023-02-28T16:47:01;5.50;49.40
15359;DHT22;7779;49.596;11.070;2023-02-28T16:49:27;5.40;49.70
15359;DHT22;7779;49.596;11.070;2023-02-28T16:51:53;5.40;49.90
15359;DHT22;7779;49.596;11.070;2023-02-28T16:54:19;5.30;49.90
15359;DHT22;7779;49.596;11.070;2023-02-28T16:56:47;5.30;50.00
15359;DHT22;7779;49.596;11.070;2023-02-28T16:59:17;5.20;50.00
15359;DHT22;7779;49.596;11.070;2023-02-28T17:01:45;5.20;50.10
15359;DHT22;7779;49.596;11.070;2023-02-28T17:04:11;5.10;50.00
15359;DHT22;7779;49.596;11.070;2023-02-28T17:06:37;5.00;50.00
15359;DHT22;7779;49.596;11.070;2023-02-28T17:09:03;5.00;50.10
15359;DHT22;7779;49.596;11.070;2023-02-28T17:11:29;4.90;50.10
15359;DHT22;7779;49.596;11.070;2023-02-28T17:13:55;4.90;50.20
15359;DHT22;7779;49.596;11.070;2023-02-28T17:16:32;4.80;50.20
15359;DHT22;7779;49.596;11.070;2023-02-28T17:19:02;4.70;50.10
15359;DHT22;7779;49.596;11.070;2023-02-28T17:21:30;4.70;50.30
15359;DHT22;7779;49.596;11.070;2023-02-28T17:23:58;4.60;50.30
15359;DHT22;7779;49.596;11.070;2023-02-28T17:26:25;4.50;50.90
15359;DHT22;7779;49.596;11.070;2023-02-28T17:28:52;4.50;50.40
15359;DHT22;7779;49.596;11.070;2023-02-28T17:31:23;4.40;50.40
15359;DHT22;7779;49.596;11.070;2023-02-28T17:33:50;4.30;50.40
15359;DHT22;7779;49.596;11.070;2023-02-28T17:36:22;4.30;50.40
15359;DHT22;7779;49.596;11.070;2023-02-28T17:38:51;4.20;50.40
15359;DHT22;7779;49.596;11.070;2023-02-28T17:41:18;4.10;50.50
15359;DHT22;7779;49.596;11.070;2023-02-28T17:43:44;4.00;50.50
15359;DHT22;7779;49.596;11.070;2023-02-28T17:46:17;4.40;51.00
15359;DHT22;7779;49.596;11.070;2023-02-28T17:48:47;3.90;50.70
15359;DHT22;7779;49.596;11.070;2023-02-28T17:51:14;3.80;50.20
15359;DHT22;7779;49.596;11.070;2023-02-28T17:53:40;3.70;50.80
15359;DHT22;7779;49.596;11.070;2023-02-28T17:56:11;3.60;50.80
15359;DHT22;7779;49.596;11.070;2023-02-28T17:58:39;3.50;50.90
15359;DHT22;7779;49.596;11.070;2023-02-28T18:01:05;3.40;50.40
15359;DHT22;7779;49.596;11.070;2023-02-28T18:03:30;3.30;51.00
15359;DHT22;7779;49.596;11.070;2023-02-28T18:05:57;3.30;51.10
15359;DHT22;7779;49.596;11.070;2023-02-28T18:08:23;3.20;51.10
15359;DHT22;7779;49.596;11.070;2023-02-28T18:10:49;3.10;50.80
15359;DHT22;7779;49.596;11.070;2023-02-28T18:13:15;3.00;51.20
15359;DHT22;7779;49.596;11.070;2023-02-28T18:15:41;2.90;51.20
15359;DHT22;7779;49.596;11.070;2023-02-28T18:18:06;2.90;51.40
15359;DHT22;7779;49.596;11.070;2023-02-28T18:20:33;2.80;51.10
15359;DHT22;7779;49.596;11.070;2023-02-28T18:23:00;2.70;51.50
15359;DHT22;7779;49.596;11.070;2023-02-28T18:25:26;2.70;51.50
15359;DHT22;7779;49.596;11.070;2023-02-28T18:27:52;2.50;51.50
15359;DHT22;7779;49.596;11.070;2023-02-28T18:30:29;2.50;51.50
15359;DHT22;7779;49.596;11.070;2023-02-28T18:33:00;2.40;51.60
15359;DHT22;7779;49.596;11.070;2023-02-28T18:35:27;2.30;51.60
15359;DHT22;7779;49.596;11.070;2023-02-28T18:38:07;2.20;51.60